sensor_id;sensor_type;location;lat;lon;timestamp;pressure;altitude;pressure_sealevel;temperature;humidity
12536;BME280;6334;48.696;2.114;2023-12-20T00:00:07;100572.83;;;8.55;100.00
12536;BME280;6334;48.696;2.114;2023-12-20T00:02:37;100567.41;;;8.62;100.00
12536;BME280;6334;48.696;2.114;2023-12-20T00:05:07;100587.72;;;8.60;99.36
12536;BME280;6334;48.696;2.114;2023-12-20T00:07:38;100577.08;;;8.54;99.24
12536;BME280;6334;48.696;2.114;2023-12-20T00:10:09;100581.45;;;8.51;98.06
12536;BME280;6334;48.696;2.114;2023-12-20T00:12:38;100594.72;;;8.51;97.57
12536;BME280;6334;48.696;2.114;2023-12-20T00:15:09;100598.47;;;8.55;97.63
12536;BME280;6334;48.696;2.114;2023-12-20T00:17:39;100606.05;;;8.48;97.38
12536;BME280;6334;48.696;2.114;2023-12-20T00:20:10;100598.30;;;8.33;97.06
12536;BME280;6334;48.696;2.114;2023-12-20T00:22:39;100602.74;;;8.46;96.01
12536;BME280;6334;48.696;2.114;2023-12-20T00:25:10;100607.72;;;8.29;94.80
12536;BME280;6334;48.696;2.114;2023-12-20T00:27:40;100612.83;;;8.44;94.78
12536;BME280;6334;48.696;2.114;2023-12-20T00:30:11;100612.00;;;8.34;94.12
12536;BME280;6334;48.696;2.114;2023-12-20T00:32:41;100610.05;;;8.26;91.49
12536;BME280;6334;48.696;2.114;2023-12-20T00:35:14;100612.70;;;8.18;90.42
12536;BME280;6334;48.696;2.114;2023-12-20T00:37:44;100609.97;;;8.17;90.60
12536;BME280;6334;48.696;2.114;2023-12-20T00:40:12;100609.39;;;8.07;90.60
12536;BME280;6334;48.696;2.114;2023-12-20T00:42:42;100612.67;;;8.14;89.41
12536;BME280;6334;48.696;2.114;2023-12-20T00:45:11;100611.93;;;8.03;89.70
12536;BME280;6334;48.696;2.114;2023-12-20T00:47:42;100606.70;;;8.12;88.28
12536;BME280;6334;48.696;2.114;2023-12-20T00:50:12;100605.03;;;7.98;88.24
12536;BME280;6334;48.696;2.114;2023-12-20T00:52:44;100612.81;;;7.87;88.42
12536;BME280;6334;48.696;2.114;2023-12-20T00:55:16;100621.50;;;7.97;87.99
12536;BME280;6334;48.696;2.114;2023-12-20T00:57:46;100619.73;;;7.83;87.92
12536;BME280;6334;48.696;2.114;2023-12-20T01:00:17;100612.12;;;7.94;88.16
12536;BME280;6334;48.696;2.114;2023-12-20T01:02:47;100617.88;;;7.88;87.68
12536;BME280;6334;48.696;2.114;2023-12-20T01:05:20;100623.06;;;7.86;87.62
12536;BME280;6334;48.696;2.114;2023-12-20T01:07:47;100622.36;;;7.92;86.81
12536;BME280;6334;48.696;2.114;2023-12-20T01:10:18;100619.05;;;7.83;87.45
12536;BME280;6334;48.696;2.114;2023-12-20T01:12:49;100617.22;;;7.89;87.36
12536;BME280;6334;48.696;2.114;2023-12-20T01:15:19;100610.39;;;7.94;87.50
12536;BME280;6334;48.696;2.114;2023-12-20T01:17:49;100612.88;;;7.76;87.39
12536;BME280;6334;48.696;2.114;2023-12-20T01:20:20;100618.06;;;7.82;87.53
12536;BME280;6334;48.696;2.114;2023-12-20T01:22:50;100630.22;;;7.54;87.61
12536;BME280;6334;48.696;2.114;2023-12-20T01:25:20;100631.64;;;7.56;87.64
12536;BME280;6334;48.696;2.114;2023-12-20T01:27:51;100635.69;;;7.71;87.10
12536;BME280;6334;48.696;2.114;2023-12-20T01:30:21;100642.67;;;7.47;87.71
12536;BME280;6334;48.696;2.114;2023-12-20T01:32:52;100652.12;;;7.43;87.52
12536;BME280;6334;48.696;2.114;2023-12-20T01:35:22;100652.83;;;7.71;87.39
12536;BME280;6334;48.696;2.114;2023-12-20T01:37:52;100648.77;;;7.61;86.77
12536;BME280;6334;48.696;2.114;2023-12-20T01:40:23;100654.80;;;7.36;86.57
12536;BME280;6334;48.696;2.114;2023-12-20T01:43:06;100657.76;;;7.49;87.47
12536;BME280;6334;48.696;2.114;2023-12-20T01:45:33;100650.06;;;7.77;85.79
12536;BME280;6334;48.696;2.114;2023-12-20T01:48:03;100652.81;;;7.51;85.84
12536;BME280;6334;48.696;2.114;2023-12-20T01:50:36;100652.97;;;7.45;86.40
12536;BME280;6334;48.696;2.114;2023-12-20T01:53:05;100664.23;;;7.59;86.54
12536;BME280;6334;48.696;2.114;2023-12-20T01:55:36;100656.04;;;7.44;86.45
12536;BME280;6334;48.696;2.114;2023-12-20T01:58:09;100662.55;;;7.65;85.19
12536;BME280;6334;48.696;2.114;2023-12-20T02:00:38;100660.97;;;7.47;87.28
12536;BME280;6334;48.696;2.114;2023-12-20T02:03:08;100668.65;;;7.70;85.10
12536;BME280;6334;48.696;2.114;2023-12-20T02:05:38;100668.70;;;7.52;85.15
12536;BME280;6334;48.696;2.114;2023-12-20T02:08:09;100660.05;;;7.82;85.82
12536;BME280;6334;48.696;2.114;2023-12-20T02:10:39;100668.30;;;7.75;85.74
12536;BME280;6334;48.696;2.114;2023-12-20T02:13:10;100676.92;;;7.71;86.32
12536;BME280;6334;48.696;2.114;2023-12-20T02:15:40;100684.72;;;7.55;86.75
12536;BME280;6334;48.696;2.114;2023-12-20T02:18:11;100689.44;;;7.33;88.36
12536;BME280;6334;48.696;2.114;2023-12-20T02:20:41;100697.22;;;7.64;86.48
12536;BME280;6334;48.696;2.114;2023-12-20T02:23:11;100698.89;;;7.43;87.96
12536;BME280;6334;48.696;2.114;2023-12-20T02:25:42;100698.63;;;7.48;87.68
12536;BME280;6334;48.696;2.114;2023-12-20T02:28:12;100699.83;;;7.60;86.89
12536;BME280;6334;48.696;2.114;2023-12-20T02:30:42;100697.17;;;7.67;87.16
12536;BME280;6334;48.696;2.114;2023-12-20T02:33:12;100695.47;;;7.68;86.81
12536;BME280;6334;48.696;2.114;2023-12-20T02:35:43;100697.59;;;7.67;87.59
12536;BME280;6334;48.696;2.114;2023-12-20T02:38:13;100702.17;;;7.68;87.00
12536;BME280;6334;48.696;2.114;2023-12-20T02:40:44;100700.23;;;7.57;87.54
12536;BME280;6334;48.696;2.114;2023-12-20T02:43:13;100704.78;;;7.42;87.06
12536;BME280;6334;48.696;2.114;2023-12-20T02:45:44;100707.42;;;7.34;88.56
12536;BME280;6334;48.696;2.114;2023-12-20T02:48:14;100710.39;;;7.62;86.50
12536;BME280;6334;48.696;2.114;2023-12-20T02:50:45;100708.20;;;7.74;86.51
12536;BME280;6334;48.696;2.114;2023-12-20T02:53:15;100702.16;;;7.76;86.05
12536;BME280;6334;48.696;2.114;2023-12-20T02:55:45;100713.69;;;7.93;85.51
12536;BME280;6334;48.696;2.114;2023-12-20T02:58:15;100709.14;;;7.48;87.73
12536;BME280;6334;48.696;2.114;2023-12-20T03:00:46;100709.04;;;7.47;87.03
12536;BME280;6334;48.696;2.114;2023-12-20T03:03:16;100715.51;;;7.33;88.68
12536;BME280;6334;48.696;2.114;2023-12-20T03:05:46;100716.65;;;7.30;87.16
12536;BME280;6334;48.696;2.114;2023-12-20T03:08:17;100712.98;;;7.28;88.36
12536;BME280;6334;48.696;2.114;2023-12-20T03:10:47;100710.27;;;7.23;88.12
12536;BME280;6334;48.696;2.114;2023-12-20T03:13:18;100710.97;;;7.27;87.71
12536;BME280;6334;48.696;2.114;2023-12-20T03:15:48;100710.56;;;7.55;86.17
12536;BME280;6334;48.696;2.114;2023-12-20T03:18:19;100719.88;;;7.17;87.12
12536;BME280;6334;48.696;2.114;2023-12-20T03:20:49;100718.27;;;6.84;88.70
12536;BME280;6334;48.696;2.114;2023-12-20T03:23:19;100710.42;;;7.24;87.64
12536;BME280;6334;48.696;2.114;2023-12-20T03:25:49;100708.31;;;7.19;86.95
12536;BME280;6334;48.696;2.114;2023-12-20T03:28:21;100708.20;;;7.05;88.91
12536;BME280;6334;48.696;2.114;2023-12-20T03:30:51;100701.12;;;7.40;86.12
12536;BME280;6334;48.696;2.114;2023-12-20T03:33:21;100703.59;;;7.33;86.27
12536;BME280;6334;48.696;2.114;2023-12-20T03:35:52;100701.84;;;7.17;87.01
12536;BME280;6334;48.696;2.114;2023-12-20T03:38:22;100698.83;;;7.02;87.58
12536;BME280;6334;48.696;2.114;2023-12-20T03:40:53;100705.55;;;6.96;87.90
12536;BME280;6334;48.696;2.114;2023-12-20T03:43:24;100709.34;;;6.96;87.67
12536;BME280;6334;48.696;2.114;2023-12-20T03:45:56;100697.62;;;7.00;87.93
12536;BME280;6334;48.696;2.114;2023-12-20T03:48:27;100698.59;;;6.97;87.28
12536;BME280;6334;48.696;2.114;2023-12-20T03:50:57;100701.85;;;6.93;87.48
12536;BME280;6334;48.696;2.114;2023-12-20T03:53:27;100708.38;;;7.13;86.70
12536;BME280;6334;48.696;2.114;2023-12-20T03:55:57;100700.71;;;6.70;88.27
12536;BME280;6334;48.696;2.114;2023-12-20T03:58:28;100704.28;;;6.89;87.70
12536;BME280;6334;48.696;2.114;2023-12-20T04:00:58;100697.55;;;6.88;87.93
12536;BME280;6334;48.696;2.114;2023-12-20T04:03:28;100695.55;;;6.75;89.21
12536;BME280;6334;48.696;2.114;2023-12-20T04:05:59;100700.45;;;7.06;86.74
12536;BME280;6334;48.696;2.114;2023-12-20T04:08:29;100708.43;;;7.02;86.83
12536;BME280;6334;48.696;2.114;2023-12-20T04:11:01;100706.39;;;7.26;86.59
12536;BME280;6334;48.696;2.114;2023-12-20T04:13:31;100706.39;;;7.26;86.10
12536;BME280;6334;48.696;2.114;2023-12-20T04:16:03;100710.83;;;6.97;86.78
12536;BME280;6334;48.696;2.114;2023-12-20T04:18:33;100709.66;;;6.78;87.19
12536;BME280;6334;48.696;2.114;2023-12-20T04:21:05;100714.11;;;7.19;86.39
12536;BME280;6334;48.696;2.114;2023-12-20T04:23:36;100716.28;;;6.79;87.24
12536;BME280;6334;48.696;2.114;2023-12-20T04:26:06;100717.85;;;6.83;87.93
12536;BME280;6334;48.696;2.114;2023-12-20T04:28:36;100720.45;;;6.99;87.29
12536;BME280;6334;48.696;2.114;2023-12-20T04:31:08;100719.97;;;6.93;87.56
12536;BME280;6334;48.696;2.114;2023-12-20T04:33:39;100716.82;;;6.94;87.33
12536;BME280;6334;48.696;2.114;2023-12-20T04:36:09;100707.83;;;6.96;87.13
12536;BME280;6334;48.696;2.114;2023-12-20T04:38:40;100709.73;;;7.00;86.94
12536;BME280;6334;48.696;2.114;2023-12-20T04:41:10;100720.72;;;6.83;86.58
12536;BME280;6334;48.696;2.114;2023-12-20T04:43:40;100722.20;;;6.88;86.68
12536;BME280;6334;48.696;2.114;2023-12-20T04:46:10;100728.05;;;6.74;87.48
12536;BME280;6334;48.696;2.114;2023-12-20T04:48:41;100728.52;;;6.61;88.42
12536;BME280;6334;48.696;2.114;2023-12-20T04:51:11;100729.40;;;6.77;86.14
12536;BME280;6334;48.696;2.114;2023-12-20T04:53:41;100721.07;;;6.90;86.84
12536;BME280;6334;48.696;2.114;2023-12-20T04:56:12;100724.02;;;6.55;88.12
12536;BME280;6334;48.696;2.114;2023-12-20T04:58:42;100726.23;;;6.57;87.19
12536;BME280;6334;48.696;2.114;2023-12-20T05:01:12;100727.49;;;6.93;86.86
12536;BME280;6334;48.696;2.114;2023-12-20T05:03:42;100724.27;;;6.76;87.00
12536;BME280;6334;48.696;2.114;2023-12-20T05:06:13;100712.20;;;6.71;86.48
12536;BME280;6334;48.696;2.114;2023-12-20T05:08:43;100717.66;;;6.59;88.00
12536;BME280;6334;48.696;2.114;2023-12-20T05:11:14;100721.09;;;6.52;88.20
12536;BME280;6334;48.696;2.114;2023-12-20T05:13:43;100723.58;;;6.86;86.87
12536;BME280;6334;48.696;2.114;2023-12-20T05:16:14;100716.20;;;6.68;86.24
12536;BME280;6334;48.696;2.114;2023-12-20T05:18:48;100712.94;;;6.48;88.23
12536;BME280;6334;48.696;2.114;2023-12-20T05:21:18;100713.03;;;6.71;86.73
12536;BME280;6334;48.696;2.114;2023-12-20T05:23:48;100715.25;;;6.83;87.02
12536;BME280;6334;48.696;2.114;2023-12-20T05:26:18;100714.44;;;6.72;86.90
12536;BME280;6334;48.696;2.114;2023-12-20T05:28:48;100707.12;;;6.42;87.65
12536;BME280;6334;48.696;2.114;2023-12-20T05:31:19;100721.73;;;6.73;86.49
12536;BME280;6334;48.696;2.114;2023-12-20T05:33:50;100722.56;;;6.56;87.00
12536;BME280;6334;48.696;2.114;2023-12-20T05:36:19;100731.11;;;6.64;87.29
12536;BME280;6334;48.696;2.114;2023-12-20T05:38:50;100733.12;;;6.88;85.88
12536;BME280;6334;48.696;2.114;2023-12-20T05:41:20;100735.52;;;6.77;86.46
12536;BME280;6334;48.696;2.114;2023-12-20T05:43:51;100732.86;;;6.53;87.31
12536;BME280;6334;48.696;2.114;2023-12-20T05:46:22;100735.35;;;6.40;87.25
12536;BME280;6334;48.696;2.114;2023-12-20T05:48:52;100735.20;;;6.30;88.45
12536;BME280;6334;48.696;2.114;2023-12-20T05:51:23;100738.72;;;6.43;87.49
12536;BME280;6334;48.696;2.114;2023-12-20T05:53:53;100738.58;;;6.23;87.94
12536;BME280;6334;48.696;2.114;2023-12-20T05:56:23;100743.02;;;6.49;88.16
12536;BME280;6334;48.696;2.114;2023-12-20T05:58:53;100749.33;;;6.45;87.93
12536;BME280;6334;48.696;2.114;2023-12-20T06:01:24;100751.39;;;6.38;87.92
12536;BME280;6334;48.696;2.114;2023-12-20T06:03:53;100745.56;;;6.32;88.49
12536;BME280;6334;48.696;2.114;2023-12-20T06:06:24;100745.23;;;6.52;87.69
12536;BME280;6334;48.696;2.114;2023-12-20T06:08:54;100744.11;;;6.53;87.60
12536;BME280;6334;48.696;2.114;2023-12-20T06:11:24;100747.54;;;6.32;88.24
12536;BME280;6334;48.696;2.114;2023-12-20T06:13:54;100752.48;;;6.55;88.13
12536;BME280;6334;48.696;2.114;2023-12-20T06:16:25;100756.37;;;6.26;88.37
12536;BME280;6334;48.696;2.114;2023-12-20T06:18:55;100765.36;;;6.60;86.95
12536;BME280;6334;48.696;2.114;2023-12-20T06:21:26;100766.32;;;6.18;88.63
12536;BME280;6334;48.696;2.114;2023-12-20T06:23:58;100764.45;;;6.21;88.37
12536;BME280;6334;48.696;2.114;2023-12-20T06:26:27;100766.16;;;6.42;87.10
12536;BME280;6334;48.696;2.114;2023-12-20T06:28:58;100763.03;;;6.38;88.59
12536;BME280;6334;48.696;2.114;2023-12-20T06:31:29;100761.57;;;6.35;88.44
12536;BME280;6334;48.696;2.114;2023-12-20T06:34:00;100769.59;;;6.55;87.50
12536;BME280;6334;48.696;2.114;2023-12-20T06:36:30;100768.28;;;6.42;88.72
12536;BME280;6334;48.696;2.114;2023-12-20T06:39:00;100768.02;;;6.50;86.94
12536;BME280;6334;48.696;2.114;2023-12-20T06:41:31;100763.86;;;6.39;88.66
12536;BME280;6334;48.696;2.114;2023-12-20T06:44:01;100758.87;;;6.36;88.70
12536;BME280;6334;48.696;2.114;2023-12-20T06:46:31;100767.11;;;7.10;91.23
12536;BME280;6334;48.696;2.114;2023-12-20T06:49:01;100758.83;;;6.45;89.62
12536;BME280;6334;48.696;2.114;2023-12-20T06:51:31;100757.33;;;6.48;89.16
12536;BME280;6334;48.696;2.114;2023-12-20T06:54:01;100755.23;;;6.46;88.72
12536;BME280;6334;48.696;2.114;2023-12-20T06:56:32;100755.53;;;6.46;88.82
12536;BME280;6334;48.696;2.114;2023-12-20T06:59:01;100759.45;;;6.52;88.78
12536;BME280;6334;48.696;2.114;2023-12-20T07:01:31;100766.84;;;6.38;89.03
12536;BME280;6334;48.696;2.114;2023-12-20T07:04:01;100767.20;;;6.55;88.54
12536;BME280;6334;48.696;2.114;2023-12-20T07:06:39;100765.72;;;6.32;89.19
12536;BME280;6334;48.696;2.114;2023-12-20T07:09:08;100759.27;;;6.41;88.46
12536;BME280;6334;48.696;2.114;2023-12-20T07:11:38;100754.52;;;7.34;95.34
12536;BME280;6334;48.696;2.114;2023-12-20T07:14:08;100752.45;;;6.48;89.77
12536;BME280;6334;48.696;2.114;2023-12-20T07:16:38;100758.40;;;6.48;89.06
12536;BME280;6334;48.696;2.114;2023-12-20T07:19:09;100761.78;;;6.43;89.09
12536;BME280;6334;48.696;2.114;2023-12-20T07:21:39;100769.33;;;6.66;88.49
12536;BME280;6334;48.696;2.114;2023-12-20T07:24:10;100770.02;;;6.56;88.56
12536;BME280;6334;48.696;2.114;2023-12-20T07:26:40;100773.39;;;6.26;89.65
12536;BME280;6334;48.696;2.114;2023-12-20T07:29:11;100779.98;;;6.60;87.93
12536;BME280;6334;48.696;2.114;2023-12-20T07:31:42;100777.05;;;6.38;88.99
12536;BME280;6334;48.696;2.114;2023-12-20T07:34:12;100787.55;;;6.61;87.73
12536;BME280;6334;48.696;2.114;2023-12-20T07:36:42;100786.67;;;6.39;88.67
12536;BME280;6334;48.696;2.114;2023-12-20T07:39:13;100782.67;;;6.37;89.08
12536;BME280;6334;48.696;2.114;2023-12-20T07:41:46;100790.23;;;6.21;89.38
12536;BME280;6334;48.696;2.114;2023-12-20T07:44:17;100790.83;;;6.26;89.31
12536;BME280;6334;48.696;2.114;2023-12-20T07:46:47;100783.13;;;6.53;87.73
12536;BME280;6334;48.696;2.114;2023-12-20T07:49:18;100785.72;;;6.23;88.53
12536;BME280;6334;48.696;2.114;2023-12-20T07:51:48;100794.58;;;6.36;88.18
12536;BME280;6334;48.696;2.114;2023-12-20T07:54:18;100795.87;;;6.17;89.99
12536;BME280;6334;48.696;2.114;2023-12-20T07:56:49;100798.16;;;5.97;90.48
12536;BME280;6334;48.696;2.114;2023-12-20T07:59:19;100805.84;;;6.10;90.48
12536;BME280;6334;48.696;2.114;2023-12-20T08:01:50;100802.16;;;6.12;90.50
12536;BME280;6334;48.696;2.114;2023-12-20T08:04:20;100805.71;;;6.50;88.97
12536;BME280;6334;48.696;2.114;2023-12-20T08:06:51;100803.27;;;6.23;89.22
12536;BME280;6334;48.696;2.114;2023-12-20T08:09:21;100806.87;;;6.31;89.21
12536;BME280;6334;48.696;2.114;2023-12-20T08:11:52;100802.73;;;6.59;88.64
12536;BME280;6334;48.696;2.114;2023-12-20T08:14:22;100806.13;;;6.31;89.89
12536;BME280;6334;48.696;2.114;2023-12-20T08:16:53;100809.23;;;6.20;89.00
12536;BME280;6334;48.696;2.114;2023-12-20T08:19:23;100808.30;;;6.15;90.33
12536;BME280;6334;48.696;2.114;2023-12-20T08:21:54;100812.48;;;6.12;89.28
12536;BME280;6334;48.696;2.114;2023-12-20T08:24:24;100812.09;;;6.28;89.61
12536;BME280;6334;48.696;2.114;2023-12-20T08:26:54;100801.25;;;6.21;89.80
12536;BME280;6334;48.696;2.114;2023-12-20T08:29:25;100809.45;;;6.18;89.55
12536;BME280;6334;48.696;2.114;2023-12-20T08:31:56;100807.89;;;6.14;89.55
12536;BME280;6334;48.696;2.114;2023-12-20T08:34:26;100802.08;;;6.23;89.49
12536;BME280;6334;48.696;2.114;2023-12-20T08:36:56;100793.01;;;6.19;89.47
12536;BME280;6334;48.696;2.114;2023-12-20T08:39:27;100794.87;;;6.07;90.11
12536;BME280;6334;48.696;2.114;2023-12-20T08:41:57;100801.91;;;6.13;90.12
12536;BME280;6334;48.696;2.114;2023-12-20T08:44:28;100805.17;;;6.32;88.81
12536;BME280;6334;48.696;2.114;2023-12-20T08:46:58;100801.34;;;5.96;90.20
12536;BME280;6334;48.696;2.114;2023-12-20T08:49:29;100799.09;;;6.36;89.10
12536;BME280;6334;48.696;2.114;2023-12-20T08:51:59;100793.75;;;6.10;89.55
12536;BME280;6334;48.696;2.114;2023-12-20T08:54:30;100797.11;;;6.35;89.36
12536;BME280;6334;48.696;2.114;2023-12-20T08:57:00;100795.56;;;6.27;89.09
12536;BME280;6334;48.696;2.114;2023-12-20T08:59:30;100792.34;;;6.38;88.95
12536;BME280;6334;48.696;2.114;2023-12-20T09:02:01;100803.37;;;6.39;88.52
12536;BME280;6334;48.696;2.114;2023-12-20T09:04:31;100802.28;;;6.33;88.49
12536;BME280;6334;48.696;2.114;2023-12-20T09:07:02;100808.23;;;6.59;87.99
12536;BME280;6334;48.696;2.114;2023-12-20T09:09:32;100821.23;;;6.45;89.18
12536;BME280;6334;48.696;2.114;2023-12-20T09:12:03;100824.48;;;6.71;87.57
12536;BME280;6334;48.696;2.114;2023-12-20T09:14:33;100819.03;;;6.70;87.77
12536;BME280;6334;48.696;2.114;2023-12-20T09:17:05;100818.64;;;6.43;88.82
12536;BME280;6334;48.696;2.114;2023-12-20T09:19:36;100820.55;;;6.42;89.29
12536;BME280;6334;48.696;2.114;2023-12-20T09:22:06;100823.19;;;6.42;89.29
12536;BME280;6334;48.696;2.114;2023-12-20T09:24:36;100811.89;;;6.70;88.53
12536;BME280;6334;48.696;2.114;2023-12-20T09:27:08;100819.47;;;6.53;90.40
12536;BME280;6334;48.696;2.114;2023-12-20T09:29:39;100822.79;;;7.05;88.71
12536;BME280;6334;48.696;2.114;2023-12-20T09:32:09;100819.84;;;6.80;89.46
12536;BME280;6334;48.696;2.114;2023-12-20T09:34:39;100822.95;;;6.79;89.45
12536;BME280;6334;48.696;2.114;2023-12-20T09:37:10;100817.66;;;6.99;88.87
12536;BME280;6334;48.696;2.114;2023-12-20T09:39:40;100811.42;;;6.41;91.59
12536;BME280;6334;48.696;2.114;2023-12-20T09:42:11;100816.91;;;6.68;91.38
12536;BME280;6334;48.696;2.114;2023-12-20T09:44:41;100820.39;;;6.79;90.43
12536;BME280;6334;48.696;2.114;2023-12-20T09:47:12;100816.58;;;6.88;90.43
12536;BME280;6334;48.696;2.114;2023-12-20T09:49:42;100825.42;;;6.88;90.03
12536;BME280;6334;48.696;2.114;2023-12-20T09:52:13;100830.92;;;7.02;89.99
12536;BME280;6334;48.696;2.114;2023-12-20T09:54:43;100823.73;;;7.13;89.25
12536;BME280;6334;48.696;2.114;2023-12-20T09:57:14;100826.30;;;7.23;88.58
12536;BME280;6334;48.696;2.114;2023-12-20T09:59:44;100832.30;;;7.10;89.54
12536;BME280;6334;48.696;2.114;2023-12-20T10:02:15;100820.83;;;7.12;89.60
12536;BME280;6334;48.696;2.114;2023-12-20T10:04:46;100828.08;;;7.17;89.20
12536;BME280;6334;48.696;2.114;2023-12-20T10:07:16;100822.54;;;7.27;89.44
12536;BME280;6334;48.696;2.114;2023-12-20T10:09:46;100827.50;;;7.16;89.06
12536;BME280;6334;48.696;2.114;2023-12-20T10:12:17;100829.79;;;6.97;90.77
12536;BME280;6334;48.696;2.114;2023-12-20T10:14:47;100828.03;;;7.13;90.46
12536;BME280;6334;48.696;2.114;2023-12-20T10:17:17;100828.61;;;7.24;90.12
12536;BME280;6334;48.696;2.114;2023-12-20T10:19:48;100822.70;;;7.16;91.08
12536;BME280;6334;48.696;2.114;2023-12-20T10:22:18;100816.36;;;7.17;90.57
12536;BME280;6334;48.696;2.114;2023-12-20T10:24:49;100817.37;;;7.37;90.01
12536;BME280;6334;48.696;2.114;2023-12-20T10:27:19;100789.35;;;7.45;89.00
12536;BME280;6334;48.696;2.114;2023-12-20T10:29:50;100800.14;;;7.29;90.00
12536;BME280;6334;48.696;2.114;2023-12-20T10:32:24;100796.35;;;7.49;89.50
12536;BME280;6334;48.696;2.114;2023-12-20T10:34:54;100804.55;;;7.50;89.31
12536;BME280;6334;48.696;2.114;2023-12-20T10:37:24;100805.02;;;7.43;89.75
12536;BME280;6334;48.696;2.114;2023-12-20T10:39:54;100804.00;;;7.46;89.34
12536;BME280;6334;48.696;2.114;2023-12-20T10:42:26;100804.45;;;7.69;88.61
12536;BME280;6334;48.696;2.114;2023-12-20T10:44:54;100802.38;;;7.61;88.83
12536;BME280;6334;48.696;2.114;2023-12-20T10:47:28;100792.10;;;7.62;88.89
12536;BME280;6334;48.696;2.114;2023-12-20T10:49:59;100786.37;;;7.54;89.01
12536;BME280;6334;48.696;2.114;2023-12-20T10:52:30;100793.30;;;7.78;88.22
12536;BME280;6334;48.696;2.114;2023-12-20T10:55:00;100795.77;;;7.91;88.23
12536;BME280;6334;48.696;2.114;2023-12-20T10:57:31;100796.09;;;7.75;88.83
12536;BME280;6334;48.696;2.114;2023-12-20T11:00:01;100793.48;;;8.02;87.99
12536;BME280;6334;48.696;2.114;2023-12-20T11:02:32;100783.22;;;7.87;88.46
12536;BME280;6334;48.696;2.114;2023-12-20T11:08:06;100766.72;;;7.85;88.09
12536;BME280;6334;48.696;2.114;2023-12-20T11:10:37;100751.58;;;7.97;87.48
12536;BME280;6334;48.696;2.114;2023-12-20T11:13:06;100742.83;;;7.91;88.17
12536;BME280;6334;48.696;2.114;2023-12-20T11:15:33;100748.78;;;7.74;88.25
12536;BME280;6334;48.696;2.114;2023-12-20T11:18:04;100750.33;;;7.80;88.30
12536;BME280;6334;48.696;2.114;2023-12-20T11:20:37;100757.69;;;7.77;88.79
12536;BME280;6334;48.696;2.114;2023-12-20T11:23:09;100759.74;;;8.00;87.36
12536;BME280;6334;48.696;2.114;2023-12-20T11:25:52;100760.41;;;7.93;87.87
12536;BME280;6334;48.696;2.114;2023-12-20T11:28:22;100754.40;;;8.03;87.18
12536;BME280;6334;48.696;2.114;2023-12-20T11:30:56;100759.41;;;8.17;87.30
12536;BME280;6334;48.696;2.114;2023-12-20T11:33:40;100754.75;;;8.25;87.34
12536;BME280;6334;48.696;2.114;2023-12-20T11:36:18;100748.63;;;8.08;87.34
12536;BME280;6334;48.696;2.114;2023-12-20T11:38:57;100744.59;;;8.29;87.60
12536;BME280;6334;48.696;2.114;2023-12-20T11:41:27;100741.94;;;8.28;87.58
12536;BME280;6334;48.696;2.114;2023-12-20T11:43:57;100743.17;;;8.20;87.60
12536;BME280;6334;48.696;2.114;2023-12-20T11:46:28;100731.70;;;7.96;88.13
12536;BME280;6334;48.696;2.114;2023-12-20T11:48:59;100728.50;;;8.01;88.32
12536;BME280;6334;48.696;2.114;2023-12-20T11:51:29;100726.31;;;8.16;87.03
12536;BME280;6334;48.696;2.114;2023-12-20T11:53:59;100714.75;;;8.10;86.14
12536;BME280;6334;48.696;2.114;2023-12-20T11:56:30;100717.97;;;8.17;87.14
12536;BME280;6334;48.696;2.114;2023-12-20T11:59:01;100706.64;;;8.02;86.97
12536;BME280;6334;48.696;2.114;2023-12-20T12:01:32;100721.13;;;8.11;86.28
12536;BME280;6334;48.696;2.114;2023-12-20T12:04:05;100724.97;;;8.30;86.12
12536;BME280;6334;48.696;2.114;2023-12-20T12:06:35;100722.62;;;8.38;85.63
12536;BME280;6334;48.696;2.114;2023-12-20T12:09:06;100713.22;;;8.34;86.12
12536;BME280;6334;48.696;2.114;2023-12-20T12:11:36;100712.32;;;8.44;86.41
12536;BME280;6334;48.696;2.114;2023-12-20T12:14:07;100718.48;;;8.45;84.89
12536;BME280;6334;48.696;2.114;2023-12-20T12:16:37;100712.16;;;8.69;85.10
12536;BME280;6334;48.696;2.114;2023-12-20T12:19:07;100717.91;;;8.72;85.77
12536;BME280;6334;48.696;2.114;2023-12-20T12:21:38;100720.80;;;8.70;85.25
12536;BME280;6334;48.696;2.114;2023-12-20T12:24:08;100717.42;;;8.58;85.29
12536;BME280;6334;48.696;2.114;2023-12-20T12:26:39;100723.45;;;8.56;85.00
12536;BME280;6334;48.696;2.114;2023-12-20T12:29:09;100717.87;;;8.37;85.49
12536;BME280;6334;48.696;2.114;2023-12-20T12:31:40;100713.73;;;8.69;84.64
12536;BME280;6334;48.696;2.114;2023-12-20T12:34:10;100708.69;;;8.68;85.06
12536;BME280;6334;48.696;2.114;2023-12-20T12:36:41;100703.77;;;8.51;85.65
12536;BME280;6334;48.696;2.114;2023-12-20T12:39:16;100693.67;;;8.43;86.09
12536;BME280;6334;48.696;2.114;2023-12-20T12:41:45;100695.38;;;8.41;86.23
12536;BME280;6334;48.696;2.114;2023-12-20T12:44:15;100692.14;;;8.49;85.68
12536;BME280;6334;48.696;2.114;2023-12-20T12:46:46;100693.92;;;8.54;86.01
12536;BME280;6334;48.696;2.114;2023-12-20T12:49:20;100689.09;;;8.33;87.45
12536;BME280;6334;48.696;2.114;2023-12-20T12:51:50;100686.05;;;8.46;87.38
12536;BME280;6334;48.696;2.114;2023-12-20T12:54:20;100675.64;;;8.41;87.29
12536;BME280;6334;48.696;2.114;2023-12-20T12:56:51;100672.54;;;8.45;87.59
12536;BME280;6334;48.696;2.114;2023-12-20T12:59:21;100670.04;;;8.58;86.51
12536;BME280;6334;48.696;2.114;2023-12-20T13:01:52;100660.42;;;8.35;88.36
12536;BME280;6334;48.696;2.114;2023-12-20T13:04:22;100658.66;;;8.65;86.34
12536;BME280;6334;48.696;2.114;2023-12-20T13:06:52;100657.77;;;8.43;87.70
12536;BME280;6334;48.696;2.114;2023-12-20T13:09:23;100656.94;;;8.58;86.79
12536;BME280;6334;48.696;2.114;2023-12-20T13:11:53;100646.41;;;8.72;86.39
12536;BME280;6334;48.696;2.114;2023-12-20T13:14:24;100645.16;;;8.55;86.85
12536;BME280;6334;48.696;2.114;2023-12-20T13:16:54;100636.97;;;8.61;86.71
12536;BME280;6334;48.696;2.114;2023-12-20T13:19:25;100623.55;;;8.50;87.15
12536;BME280;6334;48.696;2.114;2023-12-20T13:21:56;100625.09;;;8.58;87.45
12536;BME280;6334;48.696;2.114;2023-12-20T13:24:26;100608.56;;;8.66;87.08
12536;BME280;6334;48.696;2.114;2023-12-20T13:26:56;100612.94;;;8.67;87.10
12536;BME280;6334;48.696;2.114;2023-12-20T13:29:27;100614.19;;;8.67;87.68